Time;durP1;ratioP1;P1;durP2;ratioP2;P2;SDS_P1;SDS_P2;PMS_P1;PMS_P2;Temp;Humidity;BMP_temperature;BMP_pressure;BME280_temperature;BME280_humidity;BME280_pressure;Samples;Min_cycle;Max_cycle;Signal;HPM_P1;HPM_P2
2023/10/17 20:42:28;;;;;;;10.27;6.85;;;8.10;99.90;;;;;;5111922;27;20576;-77
2023/10/17 20:44:55;;;;;;;9.43;6.82;;;7.70;99.90;;;;;;5083075;28;20703;-74
2023/10/17 20:47:24;;;;;;;12.35;7.63;;;7.70;99.90;;;;;;5088091;28;20213;-73
2023/10/17 20:49:52;;;;;;;11.48;7.60;;;7.70;99.90;;;;;;5088898;28;20244;-72
2023/10/17 20:52:19;;;;;;;8.85;6.55;;;7.80;99.90;;;;;;5089624;28;20225;-74
2023/10/17 20:54:46;;;;;;;9.05;6.82;;;7.90;99.90;;;;;;5085006;28;20198;-76
2023/10/17 20:57:13;;;;;;;10.80;6.30;;;8.10;99.90;;;;;;5086089;28;20318;-76
2023/10/17 20:59:41;;;;;;;10.95;6.50;;;8.10;99.90;;;;;;5087096;28;20733;-75
2023/10/17 21:02:08;;;;;;;10.48;7.35;;;8.00;99.90;;;;;;5087498;28;20285;-75
2023/10/17 21:04:34;;;;;;;8.75;6.53;;;8.00;99.90;;;;;;5089840;28;20285;-76
2023/10/17 21:07:01;;;;;;;7.63;6.60;;;7.90;99.90;;;;;;5085673;28;20708;-73
2023/10/17 21:09:28;;;;;;;11.50;7.65;;;7.90;99.90;;;;;;5086905;28;20198;-74
2023/10/17 21:11:55;;;;;;;9.55;7.25;;;7.80;99.90;;;;;;5088594;28;20222;-74
2023/10/17 21:14:22;;;;;;;7.85;6.35;;;7.80;99.90;;;;;;5086665;28;20233;-78
2023/10/17 21:16:50;;;;;;;10.02;7.10;;;7.80;99.90;;;;;;5088932;28;20227;-74
2023/10/17 21:19:19;;;;;;;8.48;6.63;;;7.70;99.90;;;;;;5086044;28;20319;-74
2023/10/17 21:21:45;;;;;;;14.05;7.00;;;7.60;99.90;;;;;;5089172;28;20244;-73
2023/10/17 21:24:14;;;;;;;8.20;6.28;;;7.70;99.90;;;;;;5088311;28;20233;-76
2023/10/17 21:26:42;;;;;;;13.10;7.43;;;7.60;99.90;;;;;;5089063;28;20259;-75
2023/10/17 21:29:10;;;;;;;9.95;6.32;;;7.60;99.90;;;;;;5087220;28;20299;-74
2023/10/17 21:31:38;;;;;;;11.85;9.88;;;7.70;99.90;;;;;;5089141;28;20252;-76
2023/10/17 21:34:07;;;;;;;7.45;6.65;;;7.70;99.90;;;;;;5089021;28;20210;-74
2023/10/17 21:36:35;;;;;;;8.88;5.40;;;7.70;99.90;;;;;;5086558;28;20573;-73
2023/10/17 21:39:01;;;;;;;9.55;7.20;;;7.80;99.90;;;;;;5088557;28;20214;-75
2023/10/17 21:41:28;;;;;;;9.23;7.15;;;7.80;99.90;;;;;;5090316;28;20305;-74
2023/10/17 21:43:55;;;;;;;10.75;6.63;;;7.80;99.90;;;;;;5109568;28;20213;-75
2023/10/17 21:46:22;;;;;;;23.15;9.75;;;7.80;99.90;;;;;;5109947;28;20276;-76
2023/10/17 21:48:54;;;;;;;18.63;9.30;;;7.80;99.90;;;;;;5110699;28;20237;-74
2023/10/17 21:51:22;;;;;;;17.05;11.07;;;7.80;99.90;;;;;;5111230;28;20205;-75
2023/10/17 21:53:49;;;;;;;12.68;9.57;;;7.80;99.90;;;;;;5095663;28;20167;-75
2023/10/17 21:56:32;;;;;;;13.52;8.90;;;7.80;99.90;;;;;;5076620;28;20193;-75
2023/10/17 21:58:59;;;;;;;11.00;6.93;;;7.80;99.90;;;;;;5075617;28;20217;-73
2023/10/17 22:01:26;;;;;;;8.90;6.28;;;7.80;99.90;;;;;;5075661;28;20286;-75
2023/10/17 22:03:53;;;;;;;10.98;6.75;;;7.70;99.90;;;;;;5074320;28;20305;-74
2023/10/17 22:06:24;;;;;;;7.88;6.97;;;7.80;99.90;;;;;;5074418;28;20553;-74
2023/10/17 22:08:54;;;;;;;8.98;7.03;;;7.70;99.90;;;;;;5074244;28;20209;-73
2023/10/17 22:11:21;;;;;;;14.68;7.20;;;7.70;99.90;;;;;;5066389;28;20219;-75
2023/10/17 22:13:50;;;;;;;9.43;6.13;;;7.70;99.90;;;;;;5074393;28;20203;-74
2023/10/17 22:16:17;;;;;;;10.98;6.72;;;7.70;99.90;;;;;;5074045;28;20285;-74
2023/10/17 22:18:46;;;;;;;9.07;7.32;;;7.70;99.90;;;;;;5074440;28;20217;-74
2023/10/17 22:21:14;;;;;;;8.60;6.85;;;7.70;99.90;;;;;;5073960;28;20210;-74
2023/10/17 22:23:42;;;;;;;10.55;7.10;;;7.70;99.90;;;;;;5075105;28;20203;-74
2023/10/17 22:26:11;;;;;;;11.50;7.22;;;7.60;99.90;;;;;;5074043;28;20289;-73
2023/10/17 22:28:38;;;;;;;8.82;6.53;;;7.50;99.90;;;;;;5073819;28;20206;-74
2023/10/17 22:31:05;;;;;;;11.40;8.20;;;7.40;99.90;;;;;;5074340;28;20312;-74
2023/10/17 22:33:32;;;;;;;9.32;7.40;;;7.30;99.90;;;;;;5074656;28;20226;-73
2023/10/17 22:35:58;;;;;;;14.70;8.55;;;7.30;99.90;;;;;;5066013;28;20229;-73
2023/10/17 22:38:27;;;;;;;8.65;7.05;;;7.20;99.90;;;;;;5074187;28;20309;-73
2023/10/17 22:40:56;;;;;;;15.98;7.63;;;7.20;99.90;;;;;;5067694;28;20297;-74
2023/10/17 22:43:23;;;;;;;14.27;7.40;;;7.10;99.90;;;;;;5063833;28;20199;-73
2023/10/17 22:45:50;;;;;;;8.25;5.97;;;7.20;99.90;;;;;;5074173;28;20205;-74
2023/10/17 22:48:17;;;;;;;12.32;8.05;;;7.10;99.90;;;;;;5065669;28;20660;-73
2023/10/17 22:50:44;;;;;;;9.35;6.45;;;7.10;99.90;;;;;;5074181;28;20209;-74
2023/10/17 22:53:12;;;;;;;9.23;6.72;;;7.00;99.90;;;;;;5074050;28;20206;-73
2023/10/17 22:55:39;;;;;;;10.75;6.95;;;7.00;99.90;;;;;;5070778;28;20244;-73
2023/10/17 22:58:07;;;;;;;10.38;6.95;;;7.00;99.90;;;;;;5073040;28;20280;-74
2023/10/17 23:00:34;;;;;;;11.48;6.38;;;6.90;99.90;;;;;;5073544;28;20209;-74
2023/10/17 23:03:02;;;;;;;11.13;7.15;;;6.90;99.90;;;;;;5073986;28;20286;-75
2023/10/17 23:05:29;;;;;;;6.15;5.22;;;6.90;99.90;;;;;;5064360;28;20253;-73
2023/10/17 23:07:56;;;;;;;9.60;6.45;;;6.80;99.90;;;;;;5073296;28;20773;-73
2023/10/17 23:10:24;;;;;;;8.02;5.85;;;6.80;99.90;;;;;;5067088;28;20206;-75
2023/10/17 23:12:52;;;;;;;8.70;5.70;;;6.80;99.90;;;;;;5073830;28;20245;-74
2023/10/17 23:15:21;;;;;;;6.80;5.38;;;6.80;99.90;;;;;;5068055;28;20207;-74
2023/10/17 23:17:47;;;;;;;16.02;6.43;;;6.70;99.90;;;;;;5073160;28;20316;-74
2023/10/17 23:20:15;;;;;;;6.43;5.40;;;6.70;99.90;;;;;;5073251;28;20216;-74
2023/10/17 23:22:43;;;;;;;8.32;7.15;;;6.70;99.90;;;;;;5073851;28;20560;-74
2023/10/17 23:25:11;;;;;;;5.47;4.93;;;6.60;99.90;;;;;;5073217;28;20241;-74
2023/10/17 23:27:39;;;;;;;7.20;6.28;;;6.50;99.90;;;;;;5072490;28;20222;-73
2023/10/17 23:30:09;;;;;;;8.80;6.80;;;6.50;99.90;;;;;;5073220;28;20204;-73
2023/10/17 23:32:38;;;;;;;8.10;5.63;;;6.50;99.90;;;;;;5073124;28;20351;-73
2023/10/17 23:35:07;;;;;;;11.63;6.00;;;6.50;99.90;;;;;;5073282;28;20202;-73
2023/10/17 23:37:35;;;;;;;9.85;5.25;;;6.40;99.90;;;;;;5071319;28;20311;-73
2023/10/17 23:40:01;;;;;;;8.68;5.68;;;6.40;99.90;;;;;;5071881;28;20796;-74
2023/10/17 23:42:28;;;;;;;7.80;5.40;;;6.40;99.90;;;;;;5073181;28;20304;-74
2023/10/17 23:44:55;;;;;;;9.18;6.13;;;6.40;99.90;;;;;;5072972;28;20296;-73
2023/10/17 23:47:22;;;;;;;9.93;4.95;;;6.40;99.90;;;;;;5064664;28;20234;-72
2023/10/17 23:49:50;;;;;;;9.00;6.60;;;6.40;99.90;;;;;;5069716;28;20208;-74
2023/10/17 23:52:18;;;;;;;6.22;5.63;;;6.30;99.90;;;;;;5072262;28;20235;-74
2023/10/17 23:54:45;;;;;;;7.43;4.90;;;6.40;99.90;;;;;;5072739;28;20203;-73
2023/10/17 23:57:13;;;;;;;7.25;5.95;;;6.30;99.90;;;;;;5066949;28;20221;-73
2023/10/17 23:59:40;;;;;;;8.23;5.60;;;6.30;99.90;;;;;;5073034;28;20678;-73
